createdAt,value
2023-05-12T00:02:10.374Z,74.56
2023-05-12T00:04:39.752Z,74.23
2023-05-12T00:07:07.902Z,73.66
2023-05-12T00:09:38.084Z,73.81
2023-05-12T00:12:04.991Z,74.23
2023-05-12T00:14:34.763Z,74.75
2023-05-12T00:17:01.687Z,74.44
2023-05-12T00:19:28.027Z,74.60
2023-05-12T00:21:57.028Z,74.56
2023-05-12T00:24:24.539Z,74.78
2023-05-12T00:26:52.985Z,74.73
2023-05-12T00:29:19.335Z,74.48
2023-05-12T00:31:48.121Z,74.56
2023-05-12T00:34:15.717Z,75.16
2023-05-12T00:36:42.085Z,75.80
2023-05-12T00:39:08.517Z,76.17
2023-05-12T00:41:34.952Z,76.64
2023-05-12T00:44:01.339Z,76.76
2023-05-12T00:46:27.758Z,77.26
2023-05-12T00:48:56.405Z,77.53
2023-05-12T00:51:22.841Z,77.69
2023-05-12T00:53:50.547Z,77.86
2023-05-12T00:56:17.219Z,77.28
2023-05-12T00:58:43.558Z,76.90
2023-05-12T01:01:09.949Z,76.69
2023-05-12T01:03:37.175Z,76.72
2023-05-12T01:06:03.684Z,77.24
2023-05-12T01:08:30.272Z,77.43
2023-05-12T01:10:58.927Z,77.11
2023-05-12T01:13:25.964Z,77.96
2023-05-12T01:15:52.343Z,77.80
2023-05-12T01:18:19.982Z,78.61
2023-05-12T01:20:46.496Z,79.04
2023-05-12T01:23:12.979Z,78.58
2023-05-12T01:25:39.404Z,78.59
2023-05-12T01:28:05.818Z,79.29
2023-05-12T01:30:32.250Z,79.07
2023-05-12T01:32:58.806Z,78.84
2023-05-12T01:35:25.411Z,78.20
2023-05-12T01:37:51.796Z,79.02
2023-05-12T01:40:18.299Z,78.63
2023-05-12T01:42:44.991Z,78.79
2023-05-12T01:45:11.595Z,79.02
2023-05-12T01:47:38.711Z,78.91
2023-05-12T01:50:05.231Z,78.14
2023-05-12T01:52:31.649Z,78.70
2023-05-12T01:54:58.384Z,79.11
2023-05-12T02:02:45.488Z,79.37
2023-05-12T02:05:11.977Z,79.78
2023-05-12T02:07:39.503Z,79.53
2023-05-12T02:10:05.920Z,79.78
2023-05-12T02:12:32.381Z,79.40
2023-05-12T02:14:58.792Z,80.14
2023-05-12T02:17:25.353Z,79.72
2023-05-12T02:19:51.989Z,78.77
2023-05-12T02:22:23.041Z,78.80
2023-05-12T02:24:49.648Z,78.86
2023-05-12T02:27:18.061Z,78.61
2023-05-12T02:29:45.503Z,78.75
2023-05-12T02:32:13.748Z,79.15
2023-05-12T02:34:41.232Z,79.12
2023-05-12T02:37:07.688Z,79.03
2023-05-12T02:39:34.419Z,79.42
2023-05-12T02:42:00.791Z,79.18
2023-05-12T02:44:27.447Z,78.82
2023-05-12T02:46:54.129Z,78.80
2023-05-12T02:49:20.504Z,78.59
2023-05-12T02:51:46.888Z,78.62
2023-05-12T02:54:13.338Z,78.11
2023-05-12T02:56:39.700Z,77.76
2023-05-12T02:59:06.953Z,77.78
2023-05-12T03:01:33.529Z,78.07
2023-05-12T03:03:59.950Z,78.35
2023-05-12T03:06:27.077Z,78.40
2023-05-12T03:08:54.640Z,78.47
2023-05-12T03:11:21.022Z,78.11
2023-05-12T03:13:47.411Z,78.28
2023-05-12T03:16:14.532Z,77.98
2023-05-12T03:18:41.270Z,78.12
2023-05-12T03:21:08.049Z,78.30
2023-05-12T03:23:34.669Z,78.56
2023-05-12T03:26:02.062Z,78.38
2023-05-12T03:28:28.978Z,78.68
2023-05-12T03:30:55.680Z,78.23
2023-05-12T03:33:24.565Z,78.38
2023-05-12T03:35:52.624Z,78.29
2023-05-12T03:38:19.872Z,78.65
2023-05-12T03:40:46.267Z,78.45
2023-05-12T03:43:12.705Z,78.55
2023-05-12T03:45:39.192Z,78.51
2023-05-12T03:48:06.094Z,78.27
2023-05-12T03:50:32.525Z,78.28
2023-05-12T03:53:00.271Z,78.19
2023-05-12T03:55:27.174Z,78.55
2023-05-12T03:57:53.551Z,78.82
2023-05-12T04:00:20.518Z,79.06
2023-05-12T04:02:48.460Z,79.06
2023-05-12T04:05:20.366Z,79.34
2023-05-12T04:07:49.127Z,79.01
2023-05-12T04:10:15.833Z,79.35
2023-05-12T04:12:42.172Z,79.10
2023-05-12T04:15:09.788Z,79.91
2023-05-12T04:17:36.646Z,79.99
2023-05-12T04:20:03.111Z,79.86
2023-05-12T04:22:29.455Z,79.62
2023-05-12T04:24:58.336Z,79.88
2023-05-12T04:27:26.746Z,79.55
2023-05-12T04:29:53.258Z,78.96
2023-05-12T04:32:19.911Z,78.97
2023-05-12T04:34:46.836Z,78.87
2023-05-12T04:37:13.208Z,78.93
2023-05-12T04:39:41.300Z,78.89
2023-05-12T04:42:08.720Z,79.70
2023-05-12T04:44:35.192Z,79.51
2023-05-12T04:47:01.568Z,79.24
2023-05-12T04:49:27.925Z,79.67
2023-05-12T04:51:54.883Z,79.18
2023-05-12T04:54:21.344Z,79.61
2023-05-12T04:56:48.251Z,79.69
2023-05-12T04:59:15.334Z,79.27
2023-05-12T05:01:41.745Z,79.30
2023-05-12T05:04:09.279Z,78.98
2023-05-12T05:06:36.007Z,78.40
2023-05-12T05:09:02.430Z,78.13
2023-05-12T05:11:28.808Z,78.02
2023-05-12T05:13:58.303Z,78.03
2023-05-12T05:16:24.745Z,78.30
2023-05-12T05:18:51.452Z,78.07
2023-05-12T05:21:18.082Z,78.42
2023-05-12T05:23:44.575Z,78.54
2023-05-12T05:26:10.980Z,78.55
2023-05-12T05:28:37.405Z,79.21
2023-05-12T05:31:03.873Z,78.52
2023-05-12T05:33:30.273Z,78.48
2023-05-12T05:35:56.612Z,78.03
2023-05-12T05:38:22.960Z,77.74
2023-05-12T05:40:53.466Z,78.16
2023-05-12T05:43:23.509Z,78.54
2023-05-12T05:45:50.153Z,78.67
2023-05-12T05:48:18.961Z,80.04
2023-05-12T05:50:46.854Z,80.81
2023-05-12T05:53:13.861Z,80.84
2023-05-12T05:55:40.272Z,80.75
2023-05-12T05:58:06.657Z,80.37
2023-05-12T06:00:32.996Z,80.83
2023-05-12T06:02:59.440Z,80.63
2023-05-12T06:05:25.886Z,80.53
2023-05-12T06:07:52.389Z,80.90
2023-05-12T06:10:18.989Z,80.28
2023-05-12T06:12:45.491Z,79.61
2023-05-12T06:15:12.038Z,79.93
2023-05-12T06:17:38.509Z,79.60
2023-05-12T06:20:05.154Z,78.89
2023-05-12T06:22:31.540Z,79.31
2023-05-12T06:24:58.276Z,79.51
2023-05-12T06:27:24.651Z,80.24
2023-05-12T06:29:53.669Z,80.54
2023-05-12T06:32:22.417Z,79.81
2023-05-12T06:34:48.819Z,78.53
2023-05-12T06:37:17.508Z,78.44
2023-05-12T06:39:43.863Z,78.87
2023-05-12T06:42:10.354Z,78.77
2023-05-12T06:44:37.830Z,78.64
2023-05-12T06:47:04.921Z,78.00
2023-05-12T06:49:31.260Z,78.60
2023-05-12T06:51:57.855Z,78.81
2023-05-12T06:54:24.231Z,77.71
2023-05-12T06:56:53.180Z,77.77
2023-05-12T06:59:21.262Z,78.40
2023-05-12T07:01:47.813Z,78.16
2023-05-12T07:04:14.357Z,76.67
2023-05-12T07:06:40.813Z,74.96
2023-05-12T07:09:07.165Z,75.18
2023-05-12T07:11:33.774Z,75.19
2023-05-12T07:14:02.974Z,74.33
2023-05-12T07:16:29.468Z,72.66
2023-05-12T07:18:55.951Z,72.56
2023-05-12T07:21:22.368Z,72.82
2023-05-12T07:23:48.730Z,71.74
2023-05-12T07:26:17.525Z,70.25
2023-05-12T07:28:44.157Z,71.53
2023-05-12T07:31:10.557Z,71.22
2023-05-12T07:33:37.006Z,71.62
2023-05-12T07:36:03.750Z,71.52
2023-05-12T07:38:31.051Z,72.30
2023-05-12T07:40:57.400Z,74.59
2023-05-12T07:43:26.703Z,75.85
2023-05-12T07:45:54.014Z,75.79
2023-05-12T07:48:20.346Z,75.65
2023-05-12T07:50:47.051Z,74.36
2023-05-12T07:53:14.192Z,75.35
2023-05-12T07:55:41.892Z,74.30
2023-05-12T07:58:08.389Z,75.10
2023-05-12T08:00:34.783Z,75.17
2023-05-12T08:03:01.390Z,74.68
2023-05-12T08:05:27.848Z,73.70
2023-05-12T08:07:54.353Z,72.02
2023-05-12T08:10:22.186Z,73.05
2023-05-12T08:12:48.924Z,72.71
2023-05-12T08:15:16.366Z,73.89
2023-05-12T08:17:45.310Z,73.19
2023-05-12T08:20:12.275Z,72.67
2023-05-12T08:22:39.750Z,72.32
2023-05-12T08:25:13.367Z,71.58
2023-05-12T08:27:40.025Z,69.82
2023-05-12T08:30:06.589Z,68.55
2023-05-12T08:32:34.441Z,69.29
2023-05-12T08:35:00.857Z,71.29
2023-05-12T08:37:27.241Z,68.27
2023-05-12T08:39:53.714Z,67.48
2023-05-12T08:42:20.330Z,66.44
2023-05-12T08:44:51.219Z,66.81
2023-05-12T08:47:17.607Z,66.64
2023-05-12T08:49:44.165Z,64.67
2023-05-12T08:52:10.556Z,66.22
2023-05-12T08:54:48.511Z,65.87
2023-05-12T08:57:19.273Z,66.19
2023-05-12T08:59:46.691Z,64.12
2023-05-12T09:02:15.553Z,64.21
2023-05-12T09:04:42.091Z,65.24
2023-05-12T09:07:08.484Z,65.74
2023-05-12T09:09:36.102Z,64.07
2023-05-12T09:12:03.298Z,65.93
2023-05-12T09:14:30.880Z,65.28
2023-05-12T09:16:59.542Z,65.43
2023-05-12T09:19:28.307Z,65.21
2023-05-12T09:22:01.929Z,67.39
2023-05-12T09:24:28.564Z,66.90
2023-05-12T09:26:56.424Z,66.02
2023-05-12T09:29:31.829Z,65.93
2023-05-12T09:32:00.021Z,65.18
2023-05-12T09:34:26.855Z,64.79
2023-05-12T09:36:53.248Z,64.24
2023-05-12T09:39:19.974Z,65.02
2023-05-12T09:41:46.352Z,63.85
2023-05-12T09:44:15.445Z,64.22
2023-05-12T09:46:43.826Z,64.26
2023-05-12T09:49:10.484Z,65.13
2023-05-12T09:51:37.057Z,64.95
2023-05-12T09:54:04.252Z,64.89
2023-05-12T09:56:32.249Z,64.36
2023-05-12T09:58:58.981Z,66.22
2023-05-12T10:01:26.839Z,65.88
2023-05-12T10:03:53.387Z,65.72
2023-05-12T10:06:19.829Z,65.44
2023-05-12T10:08:46.228Z,65.06
2023-05-12T10:11:12.610Z,62.85
2023-05-12T10:13:39.316Z,65.49
2023-05-12T10:16:06.072Z,64.32
2023-05-12T10:18:32.617Z,63.30
2023-05-12T10:20:59.034Z,61.54
2023-05-12T10:23:25.410Z,57.91
2023-05-12T10:25:51.837Z,57.98
2023-05-12T10:28:18.776Z,59.44
2023-05-12T10:30:45.174Z,58.87
2023-05-12T10:33:15.041Z,60.36
2023-05-12T10:35:41.474Z,63.35
2023-05-12T10:38:07.819Z,58.35
2023-05-12T10:40:34.179Z,59.23
2023-05-12T10:43:00.773Z,59.36
2023-05-12T10:45:27.124Z,61.25
2023-05-12T10:47:53.602Z,60.92
2023-05-12T10:50:19.986Z,56.87
2023-05-12T10:52:46.455Z,57.93
2023-05-12T10:55:15.515Z,56.66
2023-05-12T10:57:44.896Z,58.48
2023-05-12T11:00:14.369Z,59.60
2023-05-12T11:02:41.953Z,57.21
2023-05-12T11:05:09.948Z,59.58
2023-05-12T11:07:37.618Z,59.62
2023-05-12T11:10:05.243Z,61.29
2023-05-12T11:12:33.178Z,59.85
2023-05-12T11:14:59.769Z,58.99
2023-05-12T11:17:26.260Z,57.31
2023-05-12T11:19:53.298Z,57.67
2023-05-12T11:22:21.229Z,55.73
2023-05-12T11:24:47.597Z,56.72
2023-05-12T11:27:13.983Z,54.24
2023-05-12T11:29:41.402Z,53.66
2023-05-12T11:32:08.107Z,52.35
2023-05-12T11:34:35.545Z,54.26
2023-05-12T11:37:01.988Z,53.69
2023-05-12T11:39:28.710Z,54.90
2023-05-12T11:42:05.495Z,55.24
2023-05-12T11:44:39.912Z,55.11
2023-05-12T11:47:07.291Z,54.44
2023-05-12T11:49:33.636Z,54.67
2023-05-12T11:52:00.033Z,52.07
2023-05-12T11:54:26.941Z,52.92
2023-05-12T11:57:00.421Z,53.70
2023-05-12T11:59:26.798Z,54.66
2023-05-12T12:01:53.157Z,54.76
2023-05-12T12:04:20.741Z,52.83
2023-05-12T12:06:47.288Z,52.78
2023-05-12T12:09:16.022Z,52.67
2023-05-12T12:11:42.394Z,51.02
2023-05-12T12:14:08.782Z,55.69
2023-05-12T12:16:35.216Z,51.49
2023-05-12T12:19:01.724Z,49.57
2023-05-12T12:21:28.148Z,50.08
2023-05-12T12:23:56.799Z,51.82
2023-05-12T12:26:23.163Z,49.04
2023-05-12T12:28:50.494Z,48.11
2023-05-12T12:31:16.908Z,50.07
2023-05-12T12:33:43.422Z,52.28
2023-05-12T12:36:09.807Z,52.28
2023-05-12T12:38:37.142Z,51.68
2023-05-12T12:41:03.544Z,49.86
2023-05-12T12:43:31.864Z,49.77
2023-05-12T12:45:58.342Z,47.47
2023-05-12T12:48:24.697Z,47.43
2023-05-12T12:50:51.489Z,49.27
2023-05-12T12:53:18.492Z,48.64
2023-05-12T12:55:44.902Z,50.10
2023-05-12T12:58:11.534Z,48.70
2023-05-12T13:00:37.972Z,46.17
2023-05-12T13:03:04.513Z,47.74
2023-05-12T13:05:31.217Z,46.84
2023-05-12T13:07:59.648Z,48.58
2023-05-12T13:10:26.299Z,47.43
2023-05-12T13:12:52.773Z,46.70
2023-05-12T13:15:19.728Z,45.89
2023-05-12T13:17:48.772Z,46.09
2023-05-12T13:20:15.202Z,48.59
2023-05-12T13:22:41.625Z,48.70
2023-05-12T13:25:08.260Z,50.01
2023-05-12T13:27:34.713Z,49.45
2023-05-12T13:30:01.212Z,50.40
2023-05-12T13:32:27.564Z,50.17
2023-05-12T13:34:53.981Z,51.08
2023-05-12T13:37:22.189Z,51.05
2023-05-12T13:39:48.615Z,51.45
2023-05-12T13:42:15.021Z,51.80
2023-05-12T13:44:41.580Z,50.94
2023-05-12T13:47:08.053Z,52.73
2023-05-12T13:49:34.627Z,53.14
2023-05-12T13:52:00.998Z,53.59
2023-05-12T13:54:27.379Z,52.98
2023-05-12T13:56:53.735Z,53.94
2023-05-12T13:59:20.253Z,53.64
2023-05-12T14:01:46.988Z,53.92
2023-05-12T14:04:14.415Z,52.22
2023-05-12T14:06:41.100Z,52.51
2023-05-12T14:09:08.364Z,52.20
2023-05-12T14:11:35.036Z,51.60
2023-05-12T14:14:01.560Z,53.04
2023-05-12T14:16:28.098Z,52.81
2023-05-12T14:18:54.498Z,53.97
2023-05-12T14:21:21.173Z,48.83
2023-05-12T14:23:51.242Z,47.09
2023-05-12T14:26:17.775Z,48.00
2023-05-12T14:28:44.617Z,49.36
2023-05-12T14:31:11.138Z,50.17
2023-05-12T14:33:37.557Z,47.80
2023-05-12T14:36:08.091Z,47.19
2023-05-12T14:38:35.360Z,48.69
2023-05-12T14:41:01.752Z,47.74
2023-05-12T14:43:29.506Z,48.12
2023-05-12T14:45:55.957Z,50.80
2023-05-12T14:48:22.348Z,50.09
2023-05-12T14:50:48.974Z,51.33
2023-05-12T14:53:15.371Z,50.26
2023-05-12T14:55:41.917Z,51.26
2023-05-12T14:58:08.622Z,50.33
2023-05-12T15:00:35.113Z,50.28
2023-05-12T15:03:01.611Z,52.39
2023-05-12T15:05:52.767Z,53.25
2023-05-12T15:08:17.760Z,54.73
2023-05-12T15:10:44.204Z,53.41
2023-05-12T15:13:10.602Z,54.08
2023-05-12T15:15:36.977Z,54.67
2023-05-12T15:18:03.386Z,55.77
2023-05-12T15:20:29.776Z,54.55
2023-05-12T15:22:56.122Z,53.61
2023-05-12T15:25:22.512Z,54.09
2023-05-12T15:27:50.349Z,54.64
2023-05-12T15:30:16.757Z,53.46
2023-05-12T15:32:43.244Z,53.95
2023-05-12T15:35:09.644Z,48.93
2023-05-12T15:37:36.028Z,51.02
2023-05-12T15:40:02.472Z,49.08
2023-05-12T15:42:33.258Z,51.49
2023-05-12T15:44:59.881Z,50.38
2023-05-12T15:47:26.268Z,50.45
2023-05-12T15:49:52.833Z,51.61
2023-05-12T15:52:19.299Z,49.96
2023-05-12T15:54:45.798Z,48.31
2023-05-12T15:57:12.178Z,47.89
2023-05-12T15:59:38.942Z,48.20
2023-05-12T16:02:07.423Z,49.15
2023-05-12T16:04:33.825Z,50.58
2023-05-12T16:07:00.371Z,49.63
2023-05-12T16:09:26.862Z,50.53
2023-05-12T16:11:53.218Z,50.63
2023-05-12T16:14:19.645Z,51.63
2023-05-12T16:16:46.451Z,50.67
2023-05-12T16:19:13.874Z,51.04
2023-05-12T16:21:40.293Z,51.21
2023-05-12T16:24:08.325Z,52.84
2023-05-12T16:26:35.376Z,53.43
2023-05-12T16:29:01.780Z,53.30
2023-05-12T16:31:28.348Z,54.05
2023-05-12T16:33:55.800Z,54.18
2023-05-12T16:36:22.157Z,54.83
2023-05-12T16:38:48.495Z,56.28
2023-05-12T16:41:14.826Z,54.98
2023-05-12T16:43:41.179Z,54.12
2023-05-12T16:46:07.757Z,54.73
2023-05-12T16:48:34.316Z,53.90
2023-05-12T16:51:03.164Z,54.96
2023-05-12T16:53:29.713Z,54.27
2023-05-12T16:55:56.281Z,54.20
2023-05-12T16:58:22.700Z,54.17
2023-05-12T17:00:49.038Z,53.72
2023-05-12T17:03:15.507Z,54.57
2023-05-12T17:05:41.948Z,52.53
2023-05-12T17:08:08.660Z,50.44
2023-05-12T17:10:35.343Z,52.89
2023-05-12T17:13:01.705Z,55.57
2023-05-12T17:15:28.100Z,58.22
2023-05-12T17:17:55.821Z,59.90
2023-05-12T17:20:22.410Z,60.05
2023-05-12T17:22:51.210Z,59.88
2023-05-12T17:25:17.574Z,60.18
2023-05-12T17:27:44.079Z,60.81
2023-05-12T17:30:17.890Z,60.96
2023-05-12T17:32:44.492Z,62.09
2023-05-12T17:37:52.615Z,64.49
2023-05-12T17:40:20.074Z,64.34
2023-05-12T17:42:48.784Z,64.69
2023-05-12T17:45:16.142Z,65.89
2023-05-12T17:47:42.603Z,67.11
2023-05-12T17:50:09.005Z,68.28
2023-05-12T17:52:36.629Z,67.33
2023-05-12T17:55:02.974Z,67.45
2023-05-12T17:57:29.384Z,68.00
2023-05-12T17:59:55.997Z,68.90
2023-05-12T18:02:25.386Z,69.39
2023-05-12T18:04:51.900Z,70.30
2023-05-12T18:07:22.954Z,70.47
2023-05-12T18:09:50.291Z,71.01
2023-05-12T18:12:17.764Z,69.94
2023-05-12T18:14:44.401Z,70.07
2023-05-12T18:17:12.324Z,70.74
2023-05-12T18:19:38.777Z,71.12
2023-05-12T18:22:05.186Z,70.79
2023-05-12T18:24:33.094Z,72.18
2023-05-12T18:26:59.537Z,72.56
2023-05-12T18:29:25.929Z,72.47
2023-05-12T18:31:52.412Z,71.93
2023-05-12T18:34:19.836Z,72.38
2023-05-12T18:36:49.668Z,72.62
2023-05-12T18:39:16.764Z,71.59
2023-05-12T18:41:43.348Z,72.07
2023-05-12T18:44:09.842Z,71.86
2023-05-12T18:46:36.403Z,71.42
2023-05-12T18:49:03.195Z,72.35
2023-05-12T18:51:29.894Z,71.25
2023-05-12T18:54:00.225Z,72.33
2023-05-12T18:56:26.612Z,72.26
2023-05-12T18:59:00.172Z,72.18
2023-05-12T19:01:26.805Z,72.12
2023-05-12T19:03:54.254Z,73.22
2023-05-12T19:06:21.028Z,73.81
2023-05-12T19:08:47.676Z,73.79
2023-05-12T19:11:18.602Z,73.98
2023-05-12T19:13:45.041Z,73.38
2023-05-12T19:16:12.511Z,73.40
2023-05-12T19:18:39.001Z,73.61
2023-05-12T19:21:06.453Z,73.97
2023-05-12T19:23:33.824Z,73.97
2023-05-12T19:26:00.660Z,74.72
2023-05-12T19:28:28.408Z,74.11
2023-05-12T19:30:58.427Z,74.85
2023-05-12T19:33:27.019Z,75.16
2023-05-12T19:35:53.861Z,75.33
2023-05-12T19:38:20.801Z,76.21
2023-05-12T19:40:47.170Z,76.98
2023-05-12T19:43:14.499Z,77.20
2023-05-12T19:45:41.094Z,76.52
2023-05-12T19:48:07.740Z,75.50
2023-05-12T19:50:34.215Z,75.55
2023-05-12T19:53:01.118Z,74.98
2023-05-12T19:55:29.297Z,74.45
2023-05-12T19:57:55.806Z,74.36
2023-05-12T20:00:22.376Z,73.91
2023-05-12T20:02:49.190Z,74.50
2023-05-12T20:05:16.285Z,74.61
2023-05-12T20:07:42.957Z,74.80
2023-05-12T20:10:09.778Z,75.02
2023-05-12T20:12:38.471Z,75.28
2023-05-12T20:15:07.632Z,75.82
2023-05-12T20:17:34.376Z,75.98
2023-05-12T20:20:03.991Z,76.77
2023-05-12T20:22:30.815Z,77.08
2023-05-12T20:24:57.257Z,77.19
2023-05-12T20:27:23.598Z,76.83
2023-05-12T20:29:49.944Z,77.51
2023-05-12T20:32:16.389Z,77.66
2023-05-12T20:34:43.219Z,77.32
2023-05-12T20:37:09.840Z,77.35
2023-05-12T20:39:36.649Z,77.43
2023-05-12T20:42:05.579Z,77.90
2023-05-12T20:44:32.297Z,78.27
2023-05-12T20:46:58.714Z,77.77
2023-05-12T20:49:25.080Z,77.58
2023-05-12T20:51:51.431Z,77.31
2023-05-12T20:54:18.022Z,78.05
2023-05-12T20:56:44.406Z,78.28
2023-05-12T20:59:11.097Z,78.39
2023-05-12T21:01:37.600Z,78.06
2023-05-12T21:04:04.084Z,78.09
2023-05-12T21:06:30.544Z,78.59
2023-05-12T21:08:57.327Z,79.04
2023-05-12T21:11:23.668Z,78.89
2023-05-12T21:13:52.092Z,79.46
2023-05-12T21:16:18.824Z,79.11
2023-05-12T21:18:46.490Z,79.39
2023-05-12T21:21:12.952Z,79.71
2023-05-12T21:23:39.500Z,80.14
2023-05-12T21:26:05.878Z,79.06
2023-05-12T21:28:33.244Z,79.03
2023-05-12T21:30:59.803Z,78.60
2023-05-12T21:33:28.270Z,78.05
2023-05-12T21:35:54.749Z,78.49
2023-05-12T21:38:21.215Z,78.72
2023-05-12T21:40:47.782Z,78.35
2023-05-12T21:43:14.263Z,78.32
2023-05-12T21:45:40.650Z,78.68
2023-05-12T21:48:07.318Z,78.88
2023-05-12T21:50:34.280Z,79.21
2023-05-12T21:53:00.660Z,79.00
2023-05-12T21:55:27.153Z,78.64
2023-05-12T21:57:53.747Z,79.03
2023-05-12T22:00:20.570Z,79.43
2023-05-12T22:02:47.138Z,79.47
2023-05-12T22:05:16.640Z,79.33
2023-05-12T22:07:43.122Z,79.41
2023-05-12T22:10:13.937Z,79.59
2023-05-12T22:12:40.326Z,79.43
2023-05-12T22:15:09.272Z,79.06
2023-05-12T22:17:35.693Z,79.24
2023-05-12T22:20:04.633Z,78.77
2023-05-12T22:22:31.056Z,77.74
2023-05-12T22:24:57.399Z,77.54
2023-05-12T22:27:23.750Z,78.18
2023-05-12T22:29:50.382Z,78.98
2023-05-12T22:32:17.382Z,79.03
2023-05-12T22:34:43.950Z,79.39
2023-05-12T22:37:10.356Z,79.57
2023-05-12T22:39:36.867Z,79.52
2023-05-12T22:42:03.321Z,80.04
2023-05-12T22:44:29.733Z,79.59
2023-05-12T22:46:56.188Z,79.94
2023-05-12T22:49:22.705Z,79.67
2023-05-12T22:51:49.077Z,79.09
2023-05-12T22:54:16.039Z,79.50
2023-05-12T22:56:44.302Z,79.57
2023-05-12T22:59:11.665Z,79.45
2023-05-12T23:01:39.704Z,79.50
2023-05-12T23:04:06.134Z,79.29
2023-05-12T23:06:34.621Z,79.55
2023-05-12T23:09:01.088Z,79.53
2023-05-12T23:11:27.611Z,79.74
2023-05-12T23:13:53.975Z,80.49
2023-05-12T23:16:20.398Z,80.51
2023-05-12T23:18:49.218Z,80.95
2023-05-12T23:21:15.791Z,81.08
2023-05-12T23:23:42.203Z,80.74
2023-05-12T23:26:09.128Z,79.50
2023-05-12T23:28:36.011Z,78.98
2023-05-12T23:31:02.349Z,79.30
2023-05-12T23:33:28.978Z,80.35
2023-05-12T23:35:55.398Z,80.03
2023-05-12T23:38:24.179Z,80.28
2023-05-12T23:40:50.646Z,79.23
2023-05-12T23:43:17.436Z,79.96
2023-05-12T23:45:43.932Z,79.74
2023-05-12T23:48:12.705Z,79.83
2023-05-12T23:50:40.102Z,80.42
2023-05-12T23:53:06.437Z,80.10
2023-05-12T23:55:33.064Z,79.72
2023-05-12T23:57:59.415Z,78.78
